Impacts TAF Board
For situational awareness. Not to be used for flight planning purposes.
IDs:

KAUS - Austin/Bergstrom Int, TX, US

Issued at 0523 UTC 27 Sep 2020
Updated at 0732 UTC 27 Sep 2020
Potential Impact None Slight Moderate High
Time0653Z 27/08Z 27/09Z 27/10Z 27/11Z 27/12Z 27/13Z 27/14Z 27/15Z 27/16Z 27/17Z 27/18Z 27/19Z 27/20Z>>
Type OBS PRVL PRVL PRVL PRVL PRVL PRVL PRVL PRVL PRVL PRVL PRVL PRVL PRVL
VIS 8 >6 >6 >6 >6 >6 >6 >6 >6 >6 >6 >6 >6 >6
CIG 13 13 13 13 13 8 8 8 8 12 12 12 -- --
Cover BKN BKN BKN BKN BKN OVC OVC OVC OVC OVC OVC OVC SCT SCT
FltCat MVFR MVFR MVFR MVFR MVFR IFR IFR IFR IFR MVFR MVFR MVFR VFR VFR
WX -- -- -- -- -- -- -- -- -- -- -- -- -- --
WDir 180 180 180 180 180 170 170 170 170 180 180 180 180 180
WSpd 11 9 9 9 9 9 9 9 9 16 16 16 15 15
WGst -- -- -- -- -- -- -- -- -- -- -- -- -- --
R17/35
XWnd -0 -0 -0 -0 -0 1 1 1 1 -0 -0 -0 -0 -0
HWnd 11 9 9 9 9 9 9 9 9 16 16 16 15 15
Raw TAF
KAUS 270523Z 2706/2812 16008KT P6SM BKN015
  FM270700 18009KT P6SM BKN013
  FM271200 17009KT P6SM OVC008
  FM271600 18016KT P6SM OVC012
  FM271900 18015KT P6SM SCT030
  FM280900 18012KT P6SM BKN013
  FM281100 35015G30KT P6SM VCTS SCT050CB


Raw METAR
KAUS 270653Z 18011KT 8SM BKN013 24/23 A2983 RMK AO2 SLP090 T02440228 $
KAUS 270553Z 18010KT 10SM BKN011 24/23 A2983 RMK AO2 SLP091 T02440228 10300 20244 403170161 50003 $
KAUS 270500Z 18009KT 10SM BKN014 25/23 A2983 RMK AO2 T02500228 $
KAUS 270453Z 17010KT 10SM SCT014 SCT060 25/23 A2983 RMK AO2 SLP092 T02500233 $

METAR Board
Radar Display
Forecast Discussion
For situational awareness. Not to be used for flight planning purposes.